Time;durP1;ratioP1;P1;durP2;ratioP2;P2;SDS_P1;SDS_P2;PMS_P1;PMS_P2;Temp;Humidity;BMP_temperature;BMP_pressure;BME280_temperature;BME280_humidity;BME280_pressure;Samples;Min_cycle;Max_cycle;Signal;HPM_P1;HPM_P2
2021/12/04 00:01:17;;;;;;;3.63;2.00;;;;;;;;;;4976007;28;20049;-58
2021/12/04 00:03:44;;;;;;;4.70;1.53;;;;;;;;;;4976526;28;20030;-58
2021/12/04 00:06:36;;;;;;;6.63;2.00;;;;;;;;;;4973478;28;20097;-58
2021/12/04 00:09:04;;;;;;;10.03;4.83;;;;;;;;;;4971089;28;20042;-59
2021/12/04 00:11:32;;;;;;;4.33;2.30;;;;;;;;;;4971016;28;20398;-59
2021/12/04 00:13:59;;;;;;;4.80;1.57;;;;;;;;;;4971556;28;20035;-59
2021/12/04 00:16:26;;;;;;;3.43;1.30;;;;;;;;;;4973331;28;20030;-59
2021/12/04 00:18:53;;;;;;;4.17;1.70;;;;;;;;;;4976208;28;20426;-59
2021/12/04 00:21:21;;;;;;;9.13;2.63;;;;;;;;;;4976143;28;20642;-59
2021/12/04 00:23:48;;;;;;;8.57;3.27;;;;;;;;;;4976200;28;20026;-59
2021/12/04 00:26:14;;;;;;;3.30;1.73;;;;;;;;;;4975825;28;20038;-59
2021/12/04 00:28:42;;;;;;;5.20;1.87;;;;;;;;;;4973240;28;20030;-59
2021/12/04 00:31:09;;;;;;;10.73;2.40;;;;;;;;;;4970326;28;20771;-59
2021/12/04 00:33:39;;;;;;;7.27;3.53;;;;;;;;;;4970804;28;20030;-59
2021/12/04 00:36:24;;;;;;;7.23;4.33;;;;;;;;;;4970716;28;20502;-59
2021/12/04 00:50:00;;;;;;;6.10;3.27;;;;;;;;;;4974535;28;19965;-58
2021/12/04 00:52:27;;;;;;;8.70;4.40;;;;;;;;;;4970829;28;20038;-58
2021/12/04 00:54:54;;;;;;;12.23;6.03;;;;;;;;;;4970646;28;20034;-58
2021/12/04 00:57:21;;;;;;;15.30;5.93;;;;;;;;;;4970739;28;20022;-58
2021/12/04 00:59:48;;;;;;;12.53;4.63;;;;;;;;;;4970116;28;20027;-58
2021/12/04 01:02:18;;;;;;;14.63;5.50;;;;;;;;;;4975360;28;20474;-59
2021/12/04 01:04:45;;;;;;;7.13;4.13;;;;;;;;;;4975657;28;20651;-58
2021/12/04 01:07:12;;;;;;;8.27;3.63;;;;;;;;;;4974914;28;20097;-59
2021/12/04 01:09:38;;;;;;;11.67;5.70;;;;;;;;;;4975496;28;20030;-58
2021/12/04 01:12:06;;;;;;;10.33;6.23;;;;;;;;;;4974983;28;20081;-59
2021/12/04 01:14:32;;;;;;;12.07;4.53;;;;;;;;;;4970267;28;20441;-59
2021/12/04 01:17:00;;;;;;;11.70;4.07;;;;;;;;;;4969721;28;20073;-58
2021/12/04 01:19:29;;;;;;;15.77;6.73;;;;;;;;;;4969970;28;20789;-59
2021/12/04 01:21:56;;;;;;;12.90;4.10;;;;;;;;;;4970239;28;20030;-61
2021/12/04 01:24:23;;;;;;;13.07;3.90;;;;;;;;;;4974906;28;20065;-60
2021/12/04 01:26:50;;;;;;;11.70;4.43;;;;;;;;;;4975008;28;20390;-59
2021/12/04 01:29:17;;;;;;;6.00;2.97;;;;;;;;;;4974916;28;20023;-59
2021/12/04 01:31:44;;;;;;;8.73;3.37;;;;;;;;;;4974908;28;20033;-59
2021/12/04 01:34:12;;;;;;;13.10;3.47;;;;;;;;;;4974437;28;20038;-59
2021/12/04 01:36:39;;;;;;;5.73;3.17;;;;;;;;;;4969512;28;20069;-59
2021/12/04 01:39:07;;;;;;;19.60;4.50;;;;;;;;;;4969876;28;20441;-59
2021/12/04 01:41:35;;;;;;;10.93;3.70;;;;;;;;;;4969883;28;20023;-59
2021/12/04 01:44:03;;;;;;;25.47;3.63;;;;;;;;;;4968794;28;20034;-59
2021/12/04 01:46:31;;;;;;;8.63;3.73;;;;;;;;;;4973613;28;20034;-59
2021/12/04 01:48:58;;;;;;;10.50;3.50;;;;;;;;;;4974294;28;20026;-59
2021/12/04 01:51:25;;;;;;;14.10;4.00;;;;;;;;;;4974675;28;20034;-59
2021/12/04 01:53:52;;;;;;;9.10;3.30;;;;;;;;;;4974607;28;20549;-59
2021/12/04 01:56:19;;;;;;;6.83;3.53;;;;;;;;;;4974316;28;20085;-59
2021/12/04 01:58:46;;;;;;;11.90;3.10;;;;;;;;;;4969880;28;20027;-59
2021/12/04 02:01:13;;;;;;;10.67;3.70;;;;;;;;;;4969589;28;20062;-59
2021/12/04 02:03:39;;;;;;;35.73;20.47;;;;;;;;;;4969389;28;20374;-59
2021/12/04 02:06:06;;;;;;;56.17;35.97;;;;;;;;;;4968629;28;20039;-57
2021/12/04 02:08:33;;;;;;;24.17;12.00;;;;;;;;;;4972962;28;20371;-58
2021/12/04 02:11:00;;;;;;;27.43;14.30;;;;;;;;;;4974382;28;20026;-57
2021/12/04 02:13:28;;;;;;;10.93;6.57;;;;;;;;;;4974111;28;20169;-57
2021/12/04 02:15:56;;;;;;;7.17;3.97;;;;;;;;;;4973536;28;20031;-57
2021/12/04 02:18:23;;;;;;;10.87;4.60;;;;;;;;;;4974045;28;20034;-57
2021/12/04 02:20:50;;;;;;;17.80;4.30;;;;;;;;;;4969717;28;20023;-57
2021/12/04 02:23:17;;;;;;;10.50;3.97;;;;;;;;;;4968971;28;20023;-57
2021/12/04 02:25:44;;;;;;;5.33;2.80;;;;;;;;;;4968543;28;20038;-57
2021/12/04 02:28:11;;;;;;;10.03;3.83;;;;;;;;;;4969382;28;20019;-57
2021/12/04 02:30:40;;;;;;;8.57;3.33;;;;;;;;;;4972185;28;20105;-57
2021/12/04 02:33:13;;;;;;;13.47;5.67;;;;;;;;;;4973881;28;20058;-57
2021/12/04 02:35:41;;;;;;;12.23;4.30;;;;;;;;;;4973188;28;20138;-57
2021/12/04 02:38:08;;;;;;;7.53;3.60;;;;;;;;;;4973879;28;20378;-57
2021/12/04 02:40:35;;;;;;;16.37;4.10;;;;;;;;;;4973868;28;20061;-57
2021/12/04 02:43:02;;;;;;;12.90;3.53;;;;;;;;;;4970088;28;20031;-58
2021/12/04 02:45:29;;;;;;;5.93;3.00;;;;;;;;;;4968459;28;20039;-57
2021/12/04 02:47:57;;;;;;;10.50;3.60;;;;;;;;;;4968735;28;20527;-57
2021/12/04 02:50:23;;;;;;;14.27;3.97;;;;;;;;;;4968376;28;20049;-57
2021/12/04 02:52:50;;;;;;;5.13;2.60;;;;;;;;;;4971330;28;20524;-57
2021/12/04 02:55:19;;;;;;;9.03;3.60;;;;;;;;;;4973474;28;20022;-57
2021/12/04 02:57:46;;;;;;;9.33;3.20;;;;;;;;;;4973431;28;20035;-57
2021/12/04 03:00:17;;;;;;;8.80;3.33;;;;;;;;;;4973116;28;20086;-57
2021/12/04 03:02:45;;;;;;;9.43;3.23;;;;;;;;;;4973328;28;20037;-57
2021/12/04 03:05:12;;;;;;;8.00;3.87;;;;;;;;;;4969892;28;20035;-59
2021/12/04 03:07:39;;;;;;;9.40;3.27;;;;;;;;;;4968318;28;20123;-59
2021/12/04 03:10:07;;;;;;;6.93;3.40;;;;;;;;;;4968178;28;20027;-59
2021/12/04 03:12:35;;;;;;;9.80;3.60;;;;;;;;;;4968682;28;20031;-60
2021/12/04 03:15:02;;;;;;;11.03;3.83;;;;;;;;;;4971549;28;20177;-58
2021/12/04 03:17:28;;;;;;;8.73;3.30;;;;;;;;;;4973050;28;20023;-58
2021/12/04 03:19:55;;;;;;;12.77;4.33;;;;;;;;;;4972883;28;20054;-58
2021/12/04 03:22:23;;;;;;;23.33;4.60;;;;;;;;;;4973149;28;20026;-59
2021/12/04 03:24:51;;;;;;;8.10;5.00;;;;;;;;;;4973535;28;20113;-59
2021/12/04 03:27:19;;;;;;;5.57;3.00;;;;;;;;;;4970171;28;20442;-59
2021/12/04 03:30:35;;;;;;;11.17;3.20;;;;;;;;;;4968209;28;20061;-59
2021/12/04 03:40:52;;;;;;;8.65;3.65;;;;;;;;;;4972414;28;20122;-58
2021/12/04 03:43:19;;;;;;;9.47;4.23;;;;;;;;;;4973428;28;20066;-58
2021/12/04 03:45:52;;;;;;;6.47;2.90;;;;;;;;;;4973096;28;20046;-60
2021/12/04 03:50:58;;;;;;;12.10;4.83;;;;;;;;;;4967374;28;20039;-59
2021/12/04 03:53:25;;;;;;;13.33;4.77;;;;;;;;;;4968940;28;20023;-60
2021/12/04 03:55:51;;;;;;;8.13;4.00;;;;;;;;;;4968307;28;20066;-59
2021/12/04 03:58:19;;;;;;;7.07;3.00;;;;;;;;;;4968599;28;20054;-59
2021/12/04 04:00:45;;;;;;;5.30;3.03;;;;;;;;;;4972272;28;20425;-59
2021/12/04 04:03:12;;;;;;;5.20;2.77;;;;;;;;;;4972613;28;20438;-58
2021/12/04 04:05:39;;;;;;;10.07;3.77;;;;;;;;;;4972805;28;20046;-59
2021/12/04 04:08:06;;;;;;;8.47;3.73;;;;;;;;;;4976904;28;20026;-57
2021/12/04 04:10:33;;;;;;;5.60;3.00;;;;;;;;;;4975633;28;20093;-57
2021/12/04 04:12:59;;;;;;;9.50;3.43;;;;;;;;;;4971231;28;20046;-58
2021/12/04 04:15:26;;;;;;;10.30;4.67;;;;;;;;;;4971546;28;20389;-58
2021/12/04 04:17:56;;;;;;;7.07;3.33;;;;;;;;;;4971699;28;20441;-57
2021/12/04 04:20:23;;;;;;;8.33;4.40;;;;;;;;;;4971528;28;20363;-59
2021/12/04 04:22:50;;;;;;;6.83;3.40;;;;;;;;;;4975506;28;20061;-57
2021/12/04 04:25:17;;;;;;;6.47;3.40;;;;;;;;;;4976281;28;20038;-58
2021/12/04 04:27:44;;;;;;;8.53;2.80;;;;;;;;;;4976322;28;20023;-58
2021/12/04 04:30:15;;;;;;;5.13;2.70;;;;;;;;;;4974927;28;20159;-57
2021/12/04 04:32:43;;;;;;;6.90;3.27;;;;;;;;;;4970373;28;20030;-59
2021/12/04 04:35:14;;;;;;;9.23;3.40;;;;;;;;;;4970260;28;20035;-57
2021/12/04 04:38:07;;;;;;;7.47;3.63;;;;;;;;;;4970606;28;20045;-57
2021/12/04 04:57:57;;;;;;;7.35;2.72;;;;;;;;;;4891831;29;20073;-58
2021/12/04 05:00:36;;;;;;;4.80;2.58;;;;;;;;;;4948463;28;20486;-57
2021/12/04 05:11:20;;;;;;;6.30;2.90;;;;;;;;;;4975375;28;20085;-57
2021/12/04 05:13:47;;;;;;;6.20;2.80;;;;;;;;;;4975113;28;20030;-58
2021/12/04 05:16:15;;;;;;;5.50;2.47;;;;;;;;;;4974788;28;20093;-57
2021/12/04 05:18:56;;;;;;;5.07;2.67;;;;;;;;;;4971499;28;20031;-57
2021/12/04 05:21:23;;;;;;;4.93;2.37;;;;;;;;;;4969870;28;20073;-57
2021/12/04 05:23:57;;;;;;;6.87;2.80;;;;;;;;;;4969557;28;20725;-58
2021/12/04 05:26:28;;;;;;;7.47;2.53;;;;;;;;;;4953118;28;20843;-58
2021/12/04 05:28:58;;;;;;;6.47;3.43;;;;;;;;;;4973304;28;20053;-57
2021/12/04 05:31:25;;;;;;;9.20;3.13;;;;;;;;;;4974692;28;20147;-58
2021/12/04 05:33:53;;;;;;;9.37;3.30;;;;;;;;;;4974716;28;20046;-57
2021/12/04 05:36:20;;;;;;;7.73;2.47;;;;;;;;;;4974417;28;20483;-57
2021/12/04 05:38:47;;;;;;;6.77;2.40;;;;;;;;;;4974661;28;20110;-57
2021/12/04 05:41:16;;;;;;;11.60;3.03;;;;;;;;;;4970586;28;20029;-57
2021/12/04 05:43:43;;;;;;;6.90;3.13;;;;;;;;;;4968996;28;20403;-57
2021/12/04 05:46:18;;;;;;;6.90;2.90;;;;;;;;;;4969495;28;20038;-57
2021/12/04 05:49:09;;;;;;;;;;;;;;;;;;4969959;28;20043;-57
2021/12/04 05:57:05;;;;;;;6.07;2.95;;;;;;;;;;4974035;28;20090;-57
2021/12/04 05:59:32;;;;;;;5.07;2.40;;;;;;;;;;4973929;28;20019;-57
2021/12/04 06:02:00;;;;;;;4.83;2.83;;;;;;;;;;4973106;28;20482;-57
2021/12/04 06:04:27;;;;;;;6.17;3.00;;;;;;;;;;4969370;28;20066;-57
2021/12/04 06:06:54;;;;;;;4.10;2.27;;;;;;;;;;4968860;28;20394;-57
2021/12/04 06:09:21;;;;;;;6.77;2.73;;;;;;;;;;4968952;28;20023;-57
2021/12/04 06:11:48;;;;;;;7.00;2.93;;;;;;;;;;4969472;28;20023;-57
2021/12/04 06:14:15;;;;;;;5.13;2.40;;;;;;;;;;4973687;28;20034;-58
2021/12/04 06:16:42;;;;;;;4.67;2.40;;;;;;;;;;4973630;28;20054;-58
2021/12/04 06:19:24;;;;;;;4.93;2.87;;;;;;;;;;4973700;28;20105;-57
2021/12/04 06:24:36;;;;;;;4.93;2.70;;;;;;;;;;4972363;28;20042;-58
2021/12/04 06:27:03;;;;;;;5.80;2.50;;;;;;;;;;4968588;28;20046;-57
2021/12/04 06:29:30;;;;;;;4.60;2.20;;;;;;;;;;4968453;28;20035;-57
2021/12/04 06:31:57;;;;;;;5.87;2.43;;;;;;;;;;4968732;28;20276;-57
2021/12/04 06:34:24;;;;;;;5.83;2.50;;;;;;;;;;4968997;28;20026;-57
2021/12/04 06:36:51;;;;;;;4.27;2.30;;;;;;;;;;4973253;28;20046;-57
2021/12/04 06:39:18;;;;;;;4.27;2.30;;;;;;;;;;4973318;28;20276;-57
2021/12/04 06:41:45;;;;;;;6.80;2.27;;;;;;;;;;4973178;28;20265;-57
2021/12/04 06:44:12;;;;;;;3.73;2.23;;;;;;;;;;4973609;28;20062;-57
2021/12/04 06:46:39;;;;;;;5.63;2.67;;;;;;;;;;4972343;28;20043;-57
2021/12/04 06:49:24;;;;;;;5.10;2.57;;;;;;;;;;4968170;28;20043;-57
2021/12/04 06:51:55;;;;;;;6.32;2.55;;;;;;;;;;4955846;28;20284;-57
2021/12/04 06:54:26;;;;;;;10.97;4.07;;;;;;;;;;4968110;28;20046;-57
2021/12/04 06:56:53;;;;;;;5.43;2.80;;;;;;;;;;4969545;28;20280;-57
2021/12/04 06:59:29;;;;;;;5.47;2.50;;;;;;;;;;4972929;28;20312;-55
2021/12/04 07:01:57;;;;;;;4.73;2.60;;;;;;;;;;4973266;28;20043;-54
2021/12/04 07:04:29;;;;;;;4.30;2.33;;;;;;;;;;4973120;28;20474;-54
2021/12/04 07:06:56;;;;;;;4.30;2.40;;;;;;;;;;4972948;28;20328;-54
2021/12/04 07:09:23;;;;;;;3.20;1.70;;;;;;;;;;4970723;28;20715;-54
2021/12/04 07:11:50;;;;;;;3.20;1.97;;;;;;;;;;4968281;28;20280;-55
2021/12/04 07:14:17;;;;;;;4.17;2.27;;;;;;;;;;4968137;28;20850;-54
2021/12/04 07:16:45;;;;;;;5.83;1.93;;;;;;;;;;4968404;28;20265;-54
2021/12/04 07:19:12;;;;;;;4.70;2.40;;;;;;;;;;4969553;28;20338;-54
2021/12/04 07:21:40;;;;;;;3.17;1.73;;;;;;;;;;4972583;28;20260;-54
2021/12/04 07:24:07;;;;;;;4.77;2.63;;;;;;;;;;4973222;28;20263;-55
2021/12/04 07:26:33;;;;;;;3.60;2.00;;;;;;;;;;4972956;28;20309;-54
2021/12/04 07:29:00;;;;;;;5.47;1.70;;;;;;;;;;4973061;28;20276;-54
2021/12/04 07:31:29;;;;;;;5.27;2.60;;;;;;;;;;4971851;28;20264;-55
2021/12/04 07:33:56;;;;;;;4.97;2.07;;;;;;;;;;4968017;28;20269;-54
2021/12/04 07:36:23;;;;;;;4.47;2.40;;;;;;;;;;4968251;28;20818;-54
2021/12/04 07:38:51;;;;;;;4.37;2.47;;;;;;;;;;4968204;28;20277;-54
2021/12/04 07:41:18;;;;;;;3.90;2.30;;;;;;;;;;4969877;28;20296;-54
2021/12/04 07:43:45;;;;;;;3.83;2.30;;;;;;;;;;4976720;28;20697;-54
2021/12/04 07:46:12;;;;;;;3.50;1.97;;;;;;;;;;4976628;28;20641;-54
2021/12/04 07:48:39;;;;;;;6.80;2.57;;;;;;;;;;4976965;28;20683;-55
2021/12/04 07:51:06;;;;;;;3.53;1.93;;;;;;;;;;4976368;28;20323;-55
2021/12/04 07:53:34;;;;;;;4.20;2.10;;;;;;;;;;4975127;28;20319;-55
2021/12/04 07:56:01;;;;;;;6.03;2.50;;;;;;;;;;4971603;28;20347;-55
2021/12/04 07:58:28;;;;;;;4.20;2.53;;;;;;;;;;4971604;28;20304;-56
2021/12/04 08:00:55;;;;;;;7.17;2.40;;;;;;;;;;4970879;28;20273;-55
2021/12/04 08:03:22;;;;;;;6.30;2.50;;;;;;;;;;4972199;28;21087;-55
2021/12/04 08:05:50;;;;;;;5.20;2.57;;;;;;;;;;4976231;28;20261;-55
2021/12/04 08:08:17;;;;;;;7.70;2.10;;;;;;;;;;4976202;28;20363;-55
2021/12/04 08:10:44;;;;;;;5.70;2.40;;;;;;;;;;4975900;28;20825;-55
2021/12/04 08:13:11;;;;;;;8.50;2.30;;;;;;;;;;4976094;28;20272;-55
2021/12/04 08:15:38;;;;;;;5.23;2.47;;;;;;;;;;4975092;28;20260;-56
2021/12/04 08:18:07;;;;;;;7.70;2.30;;;;;;;;;;4971256;28;20265;-55
2021/12/04 08:20:35;;;;;;;5.73;2.17;;;;;;;;;;4971148;28;20272;-56
2021/12/04 08:23:02;;;;;;;3.83;2.00;;;;;;;;;;4970946;28;20681;-55
2021/12/04 08:25:30;;;;;;;3.90;2.07;;;;;;;;;;4970889;28;20771;-55
2021/12/04 08:27:57;;;;;;;3.80;2.13;;;;;;;;;;4975935;28;20359;-55
2021/12/04 08:30:26;;;;;;;4.77;2.30;;;;;;;;;;4975801;28;20627;-55
2021/12/04 08:32:56;;;;;;;6.50;2.60;;;;;;;;;;4975788;28;20830;-55
2021/12/04 08:35:24;;;;;;;4.17;2.40;;;;;;;;;;4975337;28;20364;-55
2021/12/04 08:37:57;;;;;;;5.83;2.00;;;;;;;;;;4974866;28;21031;-55
2021/12/04 08:40:24;;;;;;;3.53;2.00;;;;;;;;;;4970790;28;20272;-54
2021/12/04 08:42:51;;;;;;;4.10;2.17;;;;;;;;;;4970491;28;20307;-55
2021/12/04 08:45:19;;;;;;;3.90;2.17;;;;;;;;;;4970491;28;20322;-55
2021/12/04 08:47:46;;;;;;;3.80;1.90;;;;;;;;;;4970530;28;20350;-55
2021/12/04 08:50:14;;;;;;;7.20;2.40;;;;;;;;;;4975554;28;20782;-55
2021/12/04 08:52:42;;;;;;;3.33;1.97;;;;;;;;;;4975171;28;20739;-55
2021/12/04 08:55:09;;;;;;;4.13;2.20;;;;;;;;;;4975094;28;20276;-55
2021/12/04 08:57:36;;;;;;;3.93;2.30;;;;;;;;;;4975053;28;20343;-55
2021/12/04 09:00:04;;;;;;;4.67;2.20;;;;;;;;;;4974943;28;20764;-55
2021/12/04 09:02:33;;;;;;;3.30;2.07;;;;;;;;;;4970668;28;20270;-54
2021/12/04 09:05:00;;;;;;;3.73;2.17;;;;;;;;;;4970381;28;20773;-55
2021/12/04 09:07:27;;;;;;;4.27;2.10;;;;;;;;;;4969906;28;20320;-56
2021/12/04 09:09:56;;;;;;;7.43;2.40;;;;;;;;;;4969855;28;20635;-54
2021/12/04 09:12:25;;;;;;;3.17;1.53;;;;;;;;;;4974949;28;20351;-55
2021/12/04 09:14:53;;;;;;;5.57;2.23;;;;;;;;;;4975022;28;20628;-55
2021/12/04 09:17:21;;;;;;;3.57;2.00;;;;;;;;;;4974830;28;20292;-55
2021/12/04 09:19:49;;;;;;;3.87;2.07;;;;;;;;;;4974476;28;20367;-54
2021/12/04 09:22:23;;;;;;;4.30;2.50;;;;;;;;;;4974432;28;20261;-54
2021/12/04 09:24:54;;;;;;;3.95;2.35;;;;;;;;;;4969815;28;20273;-55
2021/12/04 09:35:51;;;;;;;3.67;1.83;;;;;;;;;;4972560;28;20771;-55
2021/12/04 10:03:34;;;;;;;4.10;2.40;;;;;;;;;;4973862;28;20046;-55
2021/12/04 10:12:05;;;;;;;3.73;2.20;;;;;;;;;;4953670;28;20333;-55
2021/12/04 10:22:43;;;;;;;5.60;2.10;;;;;;;;;;4973732;28;20296;-55
2021/12/04 10:33:42;;;;;;;4.00;2.10;;;;;;;;;;4969105;28;20802;-54
2021/12/04 10:36:09;;;;;;;4.10;2.30;;;;;;;;;;4968191;28;20272;-55
2021/12/04 10:38:42;;;;;;;9.60;2.27;;;;;;;;;;4968580;28;20286;-54
2021/12/04 10:41:11;;;;;;;4.33;2.50;;;;;;;;;;4973078;28;20277;-54
2021/12/04 10:43:38;;;;;;;5.00;2.23;;;;;;;;;;4972815;28;20268;-55
2021/12/04 10:46:14;;;;;;;4.20;2.23;;;;;;;;;;4973416;28;20360;-54
2021/12/04 10:48:48;;;;;;;3.40;2.03;;;;;;;;;;4973076;28;20273;-55
2021/12/04 10:51:36;;;;;;;4.63;2.35;;;;;;;;;;4972871;28;20273;-54
2021/12/04 10:54:21;;;;;;;3.13;1.50;;;;;;;;;;4968262;28;20775;-55
2021/12/04 10:57:02;;;;;;;;;;;;;;;;;;4968684;28;20391;-54
2021/12/04 10:59:42;;;;;;;3.37;1.77;;;;;;;;;;4968555;28;19921;-55
2021/12/04 11:02:20;;;;;;;3.10;1.77;;;;;;;;;;4970573;28;20297;-55
2021/12/04 11:05:12;;;;;;;3.93;1.87;;;;;;;;;;4972883;28;20359;-54
2021/12/04 11:18:37;;;;;;;3.43;2.23;;;;;;;;;;4973388;28;20638;-55
2021/12/04 11:19:23;;;;;;;3.55;2.08;;;;;;;;;;4972250;28;21679;-55
2021/12/04 11:22:13;;;;;;;15.15;2.80;;;;;;;;;;4972114;28;20121;-54
2021/12/04 11:25:09;;;;;;;5.57;2.20;;;;;;;;;;4974494;28;20045;-54
2021/12/04 11:40:54;;;;;;;3.73;1.83;;;;;;;;;;4971789;28;20422;-55
2021/12/04 11:43:24;;;;;;;5.43;2.33;;;;;;;;;;4971822;28;20273;-54
2021/12/04 11:48:34;;;;;;;3.33;2.07;;;;;;;;;;4976130;28;20878;-56
2021/12/04 11:51:02;;;;;;;4.97;2.63;;;;;;;;;;4976705;28;20260;-55
2021/12/04 11:53:31;;;;;;;6.17;2.70;;;;;;;;;;4976932;28;20618;-54
2021/12/04 11:55:59;;;;;;;5.43;2.50;;;;;;;;;;4976192;28;20268;-55
2021/12/04 11:58:27;;;;;;;8.07;3.27;;;;;;;;;;4975355;28;20363;-55
2021/12/04 12:00:59;;;;;;;5.33;3.07;;;;;;;;;;4971456;28;20375;-54
2021/12/04 12:03:28;;;;;;;4.40;2.77;;;;;;;;;;4971131;28;20292;-55
2021/12/04 12:06:03;;;;;;;4.00;2.10;;;;;;;;;;4971128;28;20279;-55
2021/12/04 12:08:32;;;;;;;5.82;2.50;;;;;;;;;;4972223;28;20289;-55
2021/12/04 12:11:00;;;;;;;4.30;2.20;;;;;;;;;;4976447;28;20046;-54
2021/12/04 12:13:30;;;;;;;5.30;2.90;;;;;;;;;;4976293;28;20284;-54
2021/12/04 12:16:22;;;;;;;5.07;2.60;;;;;;;;;;4976162;28;20279;-55
2021/12/04 12:18:53;;;;;;;7.67;3.07;;;;;;;;;;4975530;28;20265;-55
2021/12/04 12:21:28;;;;;;;4.73;2.83;;;;;;;;;;4972380;28;20276;-55
2021/12/04 12:27:04;;;;;;;6.82;3.75;;;;;;;;;;4970475;28;20116;-54
2021/12/04 12:38:13;;;;;;;6.80;3.10;;;;;;;;;;4975990;28;20288;-54
2021/12/04 12:40:40;;;;;;;7.87;3.60;;;;;;;;;;4975852;28;20280;-55
2021/12/04 12:43:13;;;;;;;6.03;2.97;;;;;;;;;;4974229;28;20293;-55
2021/12/04 12:45:40;;;;;;;6.40;2.87;;;;;;;;;;4970815;28;20308;-54
2021/12/04 12:48:09;;;;;;;5.57;2.90;;;;;;;;;;4970830;28;20289;-54
2021/12/04 12:50:41;;;;;;;6.10;3.03;;;;;;;;;;4969901;28;20276;-54
2021/12/04 12:53:13;;;;;;;7.23;3.60;;;;;;;;;;4971598;28;21199;-55
2021/12/04 12:55:41;;;;;;;4.90;2.63;;;;;;;;;;4975464;28;20320;-55
2021/12/04 12:58:16;;;;;;;6.40;3.17;;;;;;;;;;4975825;28;20253;-54
2021/12/04 13:11:57;;;;;;;4.77;3.00;;;;;;;;;;4951442;29;20085;-54
2021/12/04 13:14:29;;;;;;;4.80;2.43;;;;;;;;;;4953356;28;20416;-55
2021/12/04 13:17:10;;;;;;;6.77;3.17;;;;;;;;;;4974200;28;20304;-54
2021/12/04 13:19:38;;;;;;;8.07;5.00;;;;;;;;;;4974631;28;20272;-55
2021/12/04 13:22:06;;;;;;;12.03;7.53;;;;;;;;;;4974607;28;20276;-55
2021/12/04 13:24:34;;;;;;;9.77;5.87;;;;;;;;;;4974653;28;20264;-55
2021/12/04 13:29:40;;;;;;;9.27;4.43;;;;;;;;;;4969820;28;20273;-55
2021/12/04 13:32:07;;;;;;;8.50;4.93;;;;;;;;;;4969482;28;20770;-55
2021/12/04 13:34:37;;;;;;;14.33;5.23;;;;;;;;;;4969346;28;20272;-54
2021/12/04 13:37:05;;;;;;;7.00;3.67;;;;;;;;;;4969306;28;20273;-55
2021/12/04 13:39:32;;;;;;;15.77;4.50;;;;;;;;;;4973124;28;20319;-55
2021/12/04 13:41:59;;;;;;;16.00;5.23;;;;;;;;;;4974605;28;20261;-54
2021/12/04 13:44:27;;;;;;;8.57;4.63;;;;;;;;;;4974425;28;20253;-55
2021/12/04 13:47:00;;;;;;;6.63;4.50;;;;;;;;;;4974704;28;20291;-55
2021/12/04 13:49:32;;;;;;;9.50;4.87;;;;;;;;;;4973884;28;20391;-55
2021/12/04 13:52:05;;;;;;;7.93;5.00;;;;;;;;;;4967833;28;20923;-55
2021/12/04 13:54:32;;;;;;;7.83;4.97;;;;;;;;;;4968953;28;20287;-54
2021/12/04 13:56:59;;;;;;;9.83;4.53;;;;;;;;;;4969100;28;20265;-55
2021/12/04 13:59:27;;;;;;;8.67;4.57;;;;;;;;;;4968888;28;20276;-55
2021/12/04 14:01:54;;;;;;;7.90;4.10;;;;;;;;;;4974291;28;20770;-56
2021/12/04 14:04:21;;;;;;;9.10;4.03;;;;;;;;;;4974115;28;20768;-55
2021/12/04 14:06:49;;;;;;;5.33;3.30;;;;;;;;;;4973703;28;20648;-55
2021/12/04 14:09:16;;;;;;;8.53;3.87;;;;;;;;;;4973856;28;20296;-55
2021/12/04 14:11:43;;;;;;;8.87;4.33;;;;;;;;;;4973437;28;20268;-54
2021/12/04 14:14:11;;;;;;;7.87;4.13;;;;;;;;;;4968776;28;20806;-55
2021/12/04 14:16:38;;;;;;;5.60;2.93;;;;;;;;;;4968946;28;20434;-55
2021/12/04 14:19:12;;;;;;;6.20;3.17;;;;;;;;;;4968737;28;20026;-55
2021/12/04 14:21:39;;;;;;;10.73;3.53;;;;;;;;;;4967777;28;20041;-55
2021/12/04 14:24:06;;;;;;;6.57;3.73;;;;;;;;;;4973799;28;20557;-55
2021/12/04 14:26:33;;;;;;;5.70;3.70;;;;;;;;;;4972905;28;20069;-55
2021/12/04 14:29:00;;;;;;;5.03;3.20;;;;;;;;;;4973530;28;20035;-55
2021/12/04 14:31:26;;;;;;;8.17;3.60;;;;;;;;;;4973738;28;20026;-55
2021/12/04 14:33:53;;;;;;;6.57;3.97;;;;;;;;;;4973296;28;20450;-56
2021/12/04 14:36:22;;;;;;;6.87;3.97;;;;;;;;;;4968624;28;20041;-56
2021/12/04 14:38:49;;;;;;;7.10;3.97;;;;;;;;;;4968484;28;20049;-55
2021/12/04 14:41:16;;;;;;;7.03;3.97;;;;;;;;;;4968783;28;20066;-55
2021/12/04 14:43:43;;;;;;;6.13;3.30;;;;;;;;;;4968303;28;20130;-55
2021/12/04 14:46:12;;;;;;;5.00;2.83;;;;;;;;;;4973400;28;20367;-55
2021/12/04 14:48:40;;;;;;;5.60;2.73;;;;;;;;;;4973322;28;20540;-55
2021/12/04 14:51:09;;;;;;;6.07;3.33;;;;;;;;;;4972525;28;20065;-55
2021/12/04 14:53:39;;;;;;;7.30;3.37;;;;;;;;;;4972842;28;20122;-56
2021/12/04 14:56:07;;;;;;;5.97;3.57;;;;;;;;;;4973334;28;20109;-55
2021/12/04 14:58:35;;;;;;;4.87;2.63;;;;;;;;;;4968335;28;20080;-58
2021/12/04 15:01:07;;;;;;;5.10;3.23;;;;;;;;;;4968227;28;20455;-58
2021/12/04 15:03:42;;;;;;;11.57;3.60;;;;;;;;;;4968275;28;20113;-58
2021/12/04 15:06:12;;;;;;;14.70;4.57;;;;;;;;;;4968511;28;20110;-57
2021/12/04 15:08:41;;;;;;;8.67;4.93;;;;;;;;;;4973064;28;20031;-55
2021/12/04 15:11:10;;;;;;;11.43;4.70;;;;;;;;;;4973459;28;20042;-55
2021/12/04 15:13:41;;;;;;;7.47;4.13;;;;;;;;;;4973598;28;20031;-55
2021/12/04 15:16:10;;;;;;;5.17;3.60;;;;;;;;;;4972606;28;20058;-55
2021/12/04 15:18:39;;;;;;;9.43;4.93;;;;;;;;;;4972277;28;20113;-56
2021/12/04 15:21:12;;;;;;;7.97;4.63;;;;;;;;;;4968082;28;20394;-56
2021/12/04 15:23:39;;;;;;;10.13;4.80;;;;;;;;;;4967949;28;20061;-55
2021/12/04 15:26:13;;;;;;;12.40;4.77;;;;;;;;;;4967585;28;20043;-56
2021/12/04 15:28:49;;;;;;;8.27;5.00;;;;;;;;;;4954870;28;20038;-56
2021/12/04 15:31:16;;;;;;;9.33;4.70;;;;;;;;;;4972916;28;20039;-56
2021/12/04 15:33:45;;;;;;;7.10;4.60;;;;;;;;;;4972988;28;20428;-56
2021/12/04 15:36:29;;;;;;;7.43;4.10;;;;;;;;;;4972977;28;20039;-55
2021/12/04 15:38:58;;;;;;;8.33;4.13;;;;;;;;;;4972997;28;20035;-56
2021/12/04 15:47:07;;;;;;;8.23;3.30;;;;;;;;;;4953857;28;20101;-56
2021/12/04 15:55:10;;;;;;;6.73;3.07;;;;;;;;;;4972799;28;19968;-56
2021/12/04 15:57:37;;;;;;;4.93;2.93;;;;;;;;;;4972863;28;20033;-56
2021/12/04 16:00:10;;;;;;;5.73;3.20;;;;;;;;;;4972615;28;20042;-56
2021/12/04 16:02:44;;;;;;;7.10;3.30;;;;;;;;;;4974611;28;20205;-56
2021/12/04 16:05:15;;;;;;;5.20;2.72;;;;;;;;;;4971171;28;20023;-56
2021/12/04 16:07:44;;;;;;;5.83;3.60;;;;;;;;;;4971457;28;20097;-56
2021/12/04 16:10:16;;;;;;;7.07;3.70;;;;;;;;;;4971447;28;20031;-56
2021/12/04 16:12:45;;;;;;;5.83;2.70;;;;;;;;;;4971229;28;20035;-56
2021/12/04 16:15:15;;;;;;;5.10;2.47;;;;;;;;;;4975918;28;20130;-56
2021/12/04 16:17:46;;;;;;;4.80;3.20;;;;;;;;;;4976552;28;20174;-56
2021/12/04 16:20:18;;;;;;;8.60;3.00;;;;;;;;;;4967692;28;20031;-56
2021/12/04 16:22:49;;;;;;;6.93;3.60;;;;;;;;;;4975900;28;20158;-56
2021/12/04 16:25:20;;;;;;;7.20;3.47;;;;;;;;;;4974772;28;20039;-56
2021/12/04 16:33:16;;;;;;;5.80;3.77;;;;;;;;;;4970727;28;20038;-56
2021/12/04 16:35:55;;;;;;;6.37;3.30;;;;;;;;;;4972033;28;20536;-56
2021/12/04 16:38:24;;;;;;;9.03;3.43;;;;;;;;;;4976196;28;20035;-56
2021/12/04 16:40:55;;;;;;;5.90;4.27;;;;;;;;;;4975637;28;20432;-56
2021/12/04 16:43:36;;;;;;;4.23;2.93;;;;;;;;;;4975236;28;20166;-57
2021/12/04 16:46:10;;;;;;;5.03;3.20;;;;;;;;;;4975201;28;20498;-56
2021/12/04 16:48:39;;;;;;;8.27;3.33;;;;;;;;;;4973079;28;20058;-56
2021/12/04 16:56:37;;;;;;;5.20;3.70;;;;;;;;;;4970239;28;20434;-56
2021/12/04 16:59:12;;;;;;;5.77;3.23;;;;;;;;;;4974069;28;20069;-56
2021/12/04 17:01:41;;;;;;;5.67;3.70;;;;;;;;;;4974995;28;20039;-56
2021/12/04 17:04:10;;;;;;;6.47;3.23;;;;;;;;;;4975768;28;20089;-56
2021/12/04 17:06:38;;;;;;;5.90;3.30;;;;;;;;;;4974490;28;20046;-56
2021/12/04 17:09:06;;;;;;;4.67;2.73;;;;;;;;;;4975306;28;20077;-56
2021/12/04 17:11:33;;;;;;;7.13;3.60;;;;;;;;;;4970505;28;20055;-57
2021/12/04 17:14:00;;;;;;;6.00;3.23;;;;;;;;;;4970048;28;20536;-57
2021/12/04 17:16:27;;;;;;;4.07;2.80;;;;;;;;;;4970373;28;20034;-57
2021/12/04 17:19:16;;;;;;;4.80;3.23;;;;;;;;;;4970167;28;20434;-56
2021/12/04 17:21:44;;;;;;;5.50;3.17;;;;;;;;;;4959419;28;20042;-56
2021/12/04 17:24:13;;;;;;;4.63;3.23;;;;;;;;;;4974935;28;20395;-56
2021/12/04 17:26:40;;;;;;;7.17;3.50;;;;;;;;;;4974884;28;20035;-56
2021/12/04 17:29:09;;;;;;;8.17;3.17;;;;;;;;;;4975100;28;20031;-56
2021/12/04 17:31:36;;;;;;;7.47;3.40;;;;;;;;;;4974512;28;20039;-57
2021/12/04 17:34:03;;;;;;;6.73;3.00;;;;;;;;;;4969931;28;20038;-57
2021/12/04 17:36:32;;;;;;;6.73;2.90;;;;;;;;;;4969898;28;20086;-56
2021/12/04 17:38:59;;;;;;;5.70;3.10;;;;;;;;;;4970019;28;20030;-56
2021/12/04 17:41:31;;;;;;;7.47;3.17;;;;;;;;;;4969677;28;20039;-56
2021/12/04 17:43:58;;;;;;;7.50;3.30;;;;;;;;;;4974391;28;20113;-56
2021/12/04 17:46:26;;;;;;;6.17;3.00;;;;;;;;;;4974184;28;20027;-56
2021/12/04 17:48:54;;;;;;;7.53;2.60;;;;;;;;;;4974754;28;20031;-57
2021/12/04 17:51:23;;;;;;;8.70;3.33;;;;;;;;;;4974518;28;20023;-56
2021/12/04 17:53:54;;;;;;;7.00;4.10;;;;;;;;;;4974665;28;20109;-56
2021/12/04 17:56:21;;;;;;;6.53;3.10;;;;;;;;;;4969616;28;20057;-57
2021/12/04 17:58:48;;;;;;;5.87;2.97;;;;;;;;;;4969551;28;20178;-56